This is the latest recevied weather packets stored in our database for station/object W7TTE. If no packets are shown the sender has not sent any weather packets the latest 1 day(s).
| Time | Temp. | Humidity | Pressure | Rain* | Wind** | Luminosity | Snow |
|---|---|---|---|---|---|---|---|
| 1778091558 | 25.56° C | 26% | 1018.6 hPa | 0 mm | - | 764 W/m² | - |
| 1778090042 | 25° C | 27% | 1018.8 hPa | 0 mm | - | 731 W/m² | - |
| 1778089739 | 25° C | 28% | 1018.8 hPa | 0 mm | - | 724 W/m² | - |
| 1778088830 | 25° C | 27% | 1018.7 hPa | 0 mm | - | 696 W/m² | - |
| 1778087012 | 23.89° C | 29% | 1018.7 hPa | 0 mm | - | 636 W/m² | - |
| 1778086712 | 23.89° C | 30% | 1018.7 hPa | 0 mm | - | 625 W/m² | - |
| 1778086105 | 23.33° C | 31% | 1018.7 hPa | 0 mm | - | 600 W/m² | - |
| 1778085802 | 23.33° C | 31% | 1018.6 hPa | 0 mm | - | 587 W/m² | - |
| 1778083075 | 21.11° C | 35% | 1018.6 hPa | 0 mm | - | 458 W/m² | - |
| 1778081644 | 20.56° C | 36% | 1018.5 hPa | 0 mm | - | 388 W/m² | - |
| 1778081038 | 20° C | 38% | 1018.3 hPa | 0 mm | - | 356 W/m² | - |
| 1778080737 | 19.44° C | 38% | 1018.5 hPa | 0 mm | - | 340 W/m² | - |
| 1778079827 | 18.89° C | 38% | 1018.4 hPa | 0 mm | - | 292 W/m² | - |
| 1778079524 | 18.33° C | 39% | 1018.4 hPa | 0 mm | - | 276 W/m² | - |
| 1778079220 | 18.33° C | 39% | 1018.5 hPa | 0 mm | - | 261 W/m² | - |
| 1778078918 | 18.33° C | 39% | 1018.4 hPa | 0 mm | - | 245 W/m² | - |
| 1778078614 | 17.78° C | 39% | 1018.4 hPa | 0 mm | - | 229 W/m² | - |
| 1778078313 | 17.78° C | 39% | 1018.4 hPa | 0 mm | - | 214 W/m² | - |
| 1778076499 | 15.56° C | 43% | 1018.2 hPa | 0 mm | - | 130 W/m² | - |
| 1778074376 | 13.33° C | 46% | 1017.8 hPa | 0 mm | - | 30 W/m² | - |
| 1778073770 | 12.78° C | 47% | 1017.7 hPa | 0 mm | - | 26 W/m² | - |
| 1778073468 | 12.78° C | 48% | 1017.7 hPa | 0 mm | - | 25 W/m² | - |
| 1778072557 | 12.78° C | 48% | 1017.4 hPa | 0 mm | - | 17 W/m² | - |
| 1778071046 | 12.22° C | 47% | 1017.1 hPa | 0 mm | - | 3 W/m² | - |
| 1778070441 | 12.22° C | 47% | 1017.1 hPa | 0 mm | - | 1 W/m² | - |
* Rain latest hour (hover to see other rain measurements)
** Current wind speed in m/s (hover to see current wind gust speed)